createdAt,value
2022-11-08T00:01:57.083Z,2.70
2022-11-08T00:04:24.950Z,2.50
2022-11-08T00:07:10.671Z,2.37
2022-11-08T00:09:55.450Z,2.70
2022-11-08T00:12:40.212Z,2.50
2022-11-08T00:15:09.820Z,2.30
2022-11-08T00:17:37.604Z,2.80
2022-11-08T00:20:05.956Z,2.80
2022-11-08T00:22:33.365Z,2.40
2022-11-08T00:25:00.793Z,2.50
2022-11-08T00:27:28.580Z,2.50
2022-11-08T00:29:56.034Z,2.47
2022-11-08T00:32:25.598Z,2.77
2022-11-08T00:34:53.553Z,2.40
2022-11-08T00:37:21.527Z,2.47
2022-11-08T00:39:48.973Z,2.30
2022-11-08T00:42:16.442Z,2.63
2022-11-08T00:44:43.832Z,2.53
2022-11-08T00:47:11.315Z,2.70
2022-11-08T00:49:40.079Z,2.87
2022-11-08T00:52:07.802Z,2.20
2022-11-08T00:54:35.584Z,2.50
2022-11-08T00:57:02.989Z,2.30
2022-11-08T00:59:30.390Z,2.47
2022-11-08T01:01:57.895Z,2.47
2022-11-08T01:04:25.436Z,2.37
2022-11-08T01:06:54.256Z,2.27
2022-11-08T01:09:21.742Z,3.00
2022-11-08T01:11:49.153Z,2.13
2022-11-08T01:14:16.605Z,2.47
2022-11-08T01:16:46.840Z,2.37
2022-11-08T01:19:14.390Z,2.43
2022-11-08T01:21:41.792Z,3.07
2022-11-08T01:24:10.689Z,2.20
2022-11-08T01:26:38.143Z,2.53
2022-11-08T01:29:05.540Z,2.50
2022-11-08T01:31:33.240Z,2.63
2022-11-08T01:34:01.250Z,2.30
2022-11-08T01:36:29.299Z,2.10
2022-11-08T01:38:57.409Z,2.23
2022-11-08T01:41:26.971Z,2.33
2022-11-08T01:43:54.857Z,2.60
2022-11-08T01:46:37.286Z,1.90
2022-11-08T01:49:20.006Z,2.30
2022-11-08T01:51:49.493Z,2.13
2022-11-08T01:54:20.899Z,2.23
2022-11-08T01:56:50.273Z,2.20
2022-11-08T01:59:18.391Z,2.23
2022-11-08T02:01:46.099Z,2.27
2022-11-08T02:04:14.826Z,2.03
2022-11-08T02:06:42.574Z,2.10
2022-11-08T02:09:11.756Z,2.03
2022-11-08T02:11:40.405Z,1.80
2022-11-08T02:14:09.239Z,1.90
2022-11-08T02:16:36.643Z,1.97
2022-11-08T02:19:04.769Z,2.13
2022-11-08T02:21:35.912Z,1.80
2022-11-08T02:24:08.103Z,1.70
2022-11-08T02:26:36.285Z,1.87
2022-11-08T02:29:18.578Z,2.10
2022-11-08T02:31:46.013Z,1.90
2022-11-08T02:34:13.432Z,2.00
2022-11-08T02:36:41.437Z,2.00
2022-11-08T02:39:10.292Z,2.23
2022-11-08T02:41:37.705Z,1.97
2022-11-08T02:44:05.278Z,1.77
2022-11-08T02:46:32.766Z,1.93
2022-11-08T02:49:00.220Z,1.93
2022-11-08T02:51:27.713Z,1.90
2022-11-08T02:53:55.158Z,2.20
2022-11-08T02:56:24.119Z,2.40
2022-11-08T02:58:51.533Z,2.20
2022-11-08T03:01:19.185Z,1.70
2022-11-08T03:03:46.674Z,1.77
2022-11-08T03:06:14.505Z,2.30
2022-11-08T03:08:41.919Z,2.07
2022-11-08T03:11:09.386Z,1.97
2022-11-08T03:13:38.156Z,2.00
2022-11-08T03:16:05.768Z,2.40
2022-11-08T03:18:33.266Z,2.30
2022-11-08T03:21:01.175Z,2.70
2022-11-08T03:23:28.849Z,1.97
2022-11-08T03:25:56.260Z,2.10
2022-11-08T03:28:23.956Z,2.10
2022-11-08T03:30:53.740Z,2.20
2022-11-08T03:33:21.695Z,2.37
2022-11-08T03:35:49.438Z,2.13
2022-11-08T03:38:17.404Z,2.30
2022-11-08T03:40:46.378Z,2.20
2022-11-08T03:43:13.874Z,2.33
2022-11-08T03:45:41.252Z,2.17
2022-11-08T03:48:09.983Z,2.40
2022-11-08T03:50:37.456Z,2.57
2022-11-08T03:53:04.985Z,2.30
2022-11-08T03:55:32.425Z,2.70
2022-11-08T03:58:00.036Z,2.60
2022-11-08T04:00:28.392Z,2.23
2022-11-08T04:02:56.116Z,2.60
2022-11-08T04:05:24.890Z,2.60
2022-11-08T04:07:52.317Z,2.60
2022-11-08T04:10:19.741Z,2.60
2022-11-08T04:13:04.682Z,2.40
2022-11-08T04:15:32.494Z,2.60
2022-11-08T04:18:28.648Z,2.80
2022-11-08T04:21:18.361Z,2.33
2022-11-08T04:23:46.035Z,3.00
2022-11-08T04:26:13.695Z,2.77
2022-11-08T04:28:41.600Z,2.80
2022-11-08T04:31:10.664Z,2.77
2022-11-08T04:33:38.048Z,2.93
2022-11-08T04:36:08.294Z,3.00
2022-11-08T04:38:35.678Z,2.50
2022-11-08T04:41:03.700Z,3.40
2022-11-08T04:43:31.318Z,2.90
2022-11-08T04:46:02.475Z,3.13
2022-11-08T04:48:29.937Z,2.97
2022-11-08T04:50:57.442Z,3.20
2022-11-08T04:53:26.155Z,3.10
2022-11-08T04:55:59.607Z,2.73
2022-11-08T04:58:27.024Z,2.70
2022-11-08T05:00:54.429Z,2.87
2022-11-08T05:03:21.831Z,2.50
2022-11-08T05:05:49.224Z,2.50
2022-11-08T05:08:16.958Z,3.20
2022-11-08T05:10:45.923Z,2.63
2022-11-08T05:13:13.323Z,2.63
2022-11-08T05:15:40.721Z,2.60
2022-11-08T05:18:08.108Z,2.63
2022-11-08T05:20:53.258Z,2.77
2022-11-08T05:23:26.341Z,2.60
2022-11-08T05:25:55.755Z,2.40
2022-11-08T05:28:23.167Z,2.40
2022-11-08T05:30:54.566Z,2.37
2022-11-08T05:33:22.243Z,2.10
2022-11-08T05:35:49.639Z,2.30
2022-11-08T05:38:17.454Z,2.70
2022-11-08T05:40:45.457Z,2.70
2022-11-08T05:43:14.213Z,2.47
2022-11-08T05:45:41.666Z,2.70
2022-11-08T05:48:09.074Z,2.53
2022-11-08T05:50:36.897Z,2.20
2022-11-08T05:53:04.354Z,2.67
2022-11-08T05:55:32.001Z,2.80
2022-11-08T05:57:59.478Z,2.60
2022-11-08T06:00:28.230Z,2.10
2022-11-08T06:02:55.741Z,2.50
2022-11-08T06:05:23.161Z,2.10
2022-11-08T06:07:50.590Z,2.20
2022-11-08T06:10:18.119Z,2.20
2022-11-08T06:12:45.510Z,2.30
2022-11-08T06:15:12.940Z,2.30
2022-11-08T06:17:41.705Z,2.30
2022-11-08T06:20:11.803Z,2.10
2022-11-08T06:22:39.329Z,2.20
2022-11-08T06:25:06.931Z,1.93
2022-11-08T06:27:36.161Z,2.10
2022-11-08T06:30:03.613Z,1.80
2022-11-08T06:32:31.660Z,1.90
2022-11-08T06:35:00.433Z,1.73
2022-11-08T06:37:27.944Z,2.00
2022-11-08T06:39:55.347Z,2.20
2022-11-08T06:42:22.732Z,1.97
2022-11-08T06:44:50.348Z,1.67
2022-11-08T06:47:17.778Z,2.07
2022-11-08T06:49:45.247Z,2.53
2022-11-08T06:52:13.987Z,2.13
2022-11-08T06:54:41.400Z,2.10
2022-11-08T06:57:08.784Z,2.13
2022-11-08T06:59:36.191Z,1.83
2022-11-08T07:02:03.748Z,1.80
2022-11-08T07:04:31.330Z,1.93
2022-11-08T07:06:58.772Z,2.20
2022-11-08T07:09:27.582Z,2.00
2022-11-08T07:11:54.982Z,2.20
2022-11-08T07:14:22.399Z,2.00
2022-11-08T07:16:50.022Z,2.20
2022-11-08T07:19:17.537Z,1.80
2022-11-08T07:21:44.934Z,1.90
2022-11-08T07:24:12.414Z,1.80
2022-11-08T07:26:41.189Z,1.93
2022-11-08T07:29:13.347Z,1.97
2022-11-08T07:31:43.147Z,2.50
2022-11-08T07:34:10.531Z,1.77
2022-11-08T07:36:37.927Z,1.97
2022-11-08T07:39:06.819Z,2.30
2022-11-08T07:41:34.446Z,1.90
2022-11-08T07:44:03.210Z,1.70
2022-11-08T07:46:30.646Z,1.83
2022-11-08T07:48:58.065Z,1.70
2022-11-08T07:51:25.439Z,1.70
2022-11-08T07:53:52.798Z,1.93
2022-11-08T07:56:20.216Z,1.90
2022-11-08T07:58:47.611Z,2.07
2022-11-08T08:01:16.490Z,1.80
2022-11-08T08:03:43.912Z,1.87
2022-11-08T08:06:11.755Z,1.77
2022-11-08T08:08:40.033Z,1.67
2022-11-08T08:11:07.497Z,1.93
2022-11-08T08:13:34.922Z,2.00
2022-11-08T08:16:02.332Z,1.73
2022-11-08T08:18:31.378Z,1.90
2022-11-08T08:20:59.144Z,2.00
2022-11-08T08:23:26.536Z,2.23
2022-11-08T08:25:54.062Z,1.83
2022-11-08T08:28:21.465Z,1.97
2022-11-08T08:30:48.891Z,1.90
2022-11-08T08:33:32.934Z,1.80
2022-11-08T08:36:01.929Z,1.57
2022-11-08T08:38:29.971Z,1.67
2022-11-08T08:40:57.376Z,1.60
2022-11-08T08:43:24.803Z,1.80
2022-11-08T08:45:52.166Z,1.77
2022-11-08T08:48:19.600Z,1.40
2022-11-08T08:50:47.272Z,1.70
2022-11-08T08:53:16.347Z,1.77
2022-11-08T08:55:44.047Z,2.00
2022-11-08T08:58:11.869Z,1.97
2022-11-08T09:03:26.771Z,1.63
2022-11-08T09:05:54.205Z,1.80
2022-11-08T09:08:24.103Z,1.60
2022-11-08T09:10:53.628Z,1.80
2022-11-08T09:13:21.183Z,1.80
2022-11-08T09:15:48.769Z,1.70
2022-11-08T09:18:17.182Z,1.60
2022-11-08T09:20:44.951Z,1.60
2022-11-08T09:23:12.705Z,1.50
2022-11-08T09:25:41.458Z,2.20
2022-11-08T09:28:09.308Z,1.60
2022-11-08T09:30:37.065Z,1.50
2022-11-08T09:33:04.845Z,1.50
2022-11-08T09:35:32.480Z,1.70
2022-11-08T09:37:59.988Z,1.50
2022-11-08T09:40:31.355Z,1.50
2022-11-08T09:43:04.923Z,1.50
2022-11-08T09:45:34.702Z,1.93
2022-11-08T09:48:05.383Z,1.67
2022-11-08T09:50:36.464Z,1.77
2022-11-08T09:53:07.940Z,1.50
2022-11-08T09:55:37.439Z,1.63
2022-11-08T09:58:09.413Z,1.67
2022-11-08T10:00:37.361Z,1.70
2022-11-08T10:03:04.814Z,1.77
2022-11-08T10:05:35.248Z,1.50
2022-11-08T10:08:08.939Z,1.80
2022-11-08T10:10:44.845Z,1.60
2022-11-08T10:13:18.172Z,1.83
2022-11-08T10:15:49.626Z,1.60
2022-11-08T10:18:34.760Z,1.50
2022-11-08T10:21:06.181Z,1.67
2022-11-08T10:23:42.078Z,1.83
2022-11-08T10:26:13.428Z,1.73
2022-11-08T10:28:44.353Z,1.83
2022-11-08T10:31:13.029Z,1.60
2022-11-08T10:33:43.688Z,1.70
2022-11-08T10:36:13.512Z,1.87
2022-11-08T10:38:45.362Z,1.60
2022-11-08T10:41:16.485Z,1.80
2022-11-08T10:43:47.832Z,1.60
2022-11-08T10:46:21.854Z,1.70
2022-11-08T10:48:49.310Z,1.57
2022-11-08T10:51:16.747Z,1.50
2022-11-08T10:53:45.338Z,1.73
2022-11-08T10:56:12.730Z,1.90
2022-11-08T10:58:40.871Z,2.00
2022-11-08T11:01:14.474Z,1.93
2022-11-08T11:03:41.945Z,2.23
2022-11-08T11:06:21.594Z,1.70
2022-11-08T11:08:49.418Z,1.50
2022-11-08T11:11:25.210Z,1.97
2022-11-08T11:14:06.097Z,1.70
2022-11-08T11:16:35.963Z,1.70
2022-11-08T11:19:04.031Z,1.70
2022-11-08T11:21:38.010Z,1.60
2022-11-08T11:24:09.309Z,1.40
2022-11-08T11:26:39.286Z,1.90
2022-11-08T11:29:14.304Z,1.70
2022-11-08T11:31:44.477Z,1.83
2022-11-08T11:34:30.594Z,1.80
2022-11-08T11:37:00.297Z,1.70
2022-11-08T11:39:32.623Z,1.63
2022-11-08T11:42:24.172Z,1.57
2022-11-08T11:44:56.331Z,1.67
2022-11-08T11:47:30.141Z,1.97
2022-11-08T11:50:01.607Z,1.73
2022-11-08T11:52:29.019Z,1.87
2022-11-08T11:54:56.468Z,2.13
2022-11-08T11:57:30.949Z,1.73
2022-11-08T12:00:02.803Z,1.93
2022-11-08T12:02:48.491Z,1.60
2022-11-08T12:05:29.960Z,1.80
2022-11-08T12:08:01.898Z,1.73
2022-11-08T12:10:31.296Z,1.87
2022-11-08T12:13:01.563Z,1.73
2022-11-08T12:15:30.966Z,2.20
2022-11-08T12:18:30.555Z,2.43
2022-11-08T12:21:09.897Z,1.90
2022-11-08T12:23:45.884Z,2.10
2022-11-08T12:26:17.650Z,1.93
2022-11-08T12:28:50.850Z,1.93
2022-11-08T12:31:24.888Z,1.83
2022-11-08T12:33:58.838Z,2.20
2022-11-08T12:36:32.560Z,1.80
2022-11-08T12:39:05.223Z,1.90
2022-11-08T12:41:40.890Z,2.00
2022-11-08T12:44:21.218Z,1.90
2022-11-08T12:46:53.243Z,1.80
2022-11-08T12:49:27.464Z,2.43
2022-11-08T12:52:02.306Z,2.20
2022-11-08T12:54:33.239Z,2.10
2022-11-08T12:57:02.372Z,2.37
2022-11-08T12:59:33.738Z,1.93
2022-11-08T13:02:02.436Z,1.90
2022-11-08T13:04:34.067Z,1.90
2022-11-08T13:07:06.086Z,1.80
2022-11-08T13:09:39.969Z,1.70
2022-11-08T13:12:13.605Z,2.07
2022-11-08T13:14:41.673Z,2.10
2022-11-08T13:17:14.539Z,2.27
2022-11-08T13:20:04.450Z,1.60
2022-11-08T13:22:51.083Z,2.23
2022-11-08T13:25:38.887Z,2.00
2022-11-08T13:28:25.210Z,2.00
2022-11-08T13:30:56.888Z,1.60
2022-11-08T13:33:26.676Z,1.70
2022-11-08T13:36:00.486Z,1.83
2022-11-08T13:38:33.649Z,2.00
2022-11-08T13:41:18.748Z,2.00
2022-11-08T13:43:47.565Z,1.97
2022-11-08T13:46:33.565Z,1.70
2022-11-08T13:49:06.169Z,1.90
2022-11-08T13:51:34.173Z,1.57
2022-11-08T13:54:02.775Z,1.93
2022-11-08T13:56:45.231Z,1.93
2022-11-08T13:59:27.587Z,1.90
2022-11-08T14:02:00.402Z,1.63
2022-11-08T14:04:29.100Z,2.00
2022-11-08T14:06:59.180Z,1.80
2022-11-08T14:09:33.608Z,2.17
2022-11-08T14:12:03.581Z,1.80
2022-11-08T14:14:38.222Z,1.87
2022-11-08T14:17:21.030Z,1.77
2022-11-08T14:19:48.919Z,1.80
2022-11-08T14:22:18.422Z,1.80
2022-11-08T14:24:46.256Z,1.70
2022-11-08T14:27:14.742Z,2.10
2022-11-08T14:29:42.790Z,2.03
2022-11-08T14:32:17.899Z,2.17
2022-11-08T14:34:45.647Z,2.63
2022-11-08T14:37:17.786Z,3.80
2022-11-08T14:39:46.675Z,2.50
2022-11-08T14:42:18.459Z,2.63
2022-11-08T14:44:46.653Z,1.80
2022-11-08T14:47:24.774Z,2.07
2022-11-08T14:49:52.199Z,2.50
2022-11-08T14:52:22.352Z,2.20
2022-11-08T14:54:50.244Z,2.10
2022-11-08T14:57:33.849Z,2.17
2022-11-08T15:00:02.345Z,2.37
2022-11-08T15:02:31.150Z,2.10
2022-11-08T15:04:58.566Z,2.10
2022-11-08T15:07:26.674Z,2.20
2022-11-08T15:09:54.304Z,2.27
2022-11-08T15:12:22.836Z,2.00
2022-11-08T15:14:53.024Z,2.20
2022-11-08T15:17:31.853Z,2.30
2022-11-08T15:20:14.153Z,2.17
2022-11-08T15:22:43.970Z,2.00
2022-11-08T15:25:17.544Z,2.40
2022-11-08T15:27:47.076Z,2.77
2022-11-08T15:30:16.574Z,3.10
2022-11-08T15:32:45.414Z,2.30
2022-11-08T15:35:23.628Z,2.40
2022-11-08T15:37:52.685Z,2.30
2022-11-08T15:40:21.278Z,2.20
2022-11-08T15:42:49.521Z,2.40
2022-11-08T15:45:25.689Z,2.37
2022-11-08T15:47:55.424Z,2.10
2022-11-08T15:50:23.808Z,2.30
2022-11-08T15:52:52.158Z,2.10
2022-11-08T15:55:21.433Z,1.83
2022-11-08T15:57:49.496Z,1.63
2022-11-08T16:00:18.862Z,1.97
2022-11-08T16:02:46.978Z,1.77
2022-11-08T16:05:17.334Z,1.83
2022-11-08T16:07:45.044Z,1.70
2022-11-08T16:10:13.333Z,2.00
2022-11-08T16:12:42.397Z,1.60
2022-11-08T16:15:12.553Z,1.87
2022-11-08T16:17:40.162Z,1.70
2022-11-08T16:20:21.052Z,1.93
2022-11-08T16:22:48.479Z,1.90
2022-11-08T16:25:16.028Z,1.53
2022-11-08T16:27:44.438Z,1.60
2022-11-08T16:30:15.014Z,2.00
2022-11-08T16:32:42.544Z,1.40
2022-11-08T16:35:10.837Z,1.50
2022-11-08T16:37:43.270Z,1.80
2022-11-08T16:40:15.763Z,1.70
2022-11-08T16:42:43.170Z,1.60
2022-11-08T16:45:11.130Z,1.70
2022-11-08T16:47:38.605Z,1.60
2022-11-08T16:50:08.117Z,1.60
2022-11-08T16:52:35.521Z,1.53
2022-11-08T16:55:04.723Z,1.80
2022-11-08T16:57:34.995Z,1.60
2022-11-08T17:00:02.870Z,1.57
2022-11-08T17:02:31.108Z,1.50
2022-11-08T17:04:58.520Z,1.80
2022-11-08T17:07:27.215Z,1.80
2022-11-08T17:09:54.698Z,2.17
2022-11-08T17:12:23.477Z,1.90
2022-11-08T17:14:50.890Z,2.10
2022-11-08T17:17:18.313Z,2.10
2022-11-08T17:19:45.722Z,2.07
2022-11-08T17:22:13.109Z,2.17
2022-11-08T17:24:40.501Z,1.97
2022-11-08T17:27:07.905Z,1.83
2022-11-08T17:29:36.643Z,2.23
2022-11-08T17:32:04.192Z,2.03
2022-11-08T17:34:31.661Z,2.30
2022-11-08T17:36:59.051Z,2.10
2022-11-08T17:39:26.449Z,2.07
2022-11-08T17:41:54.303Z,2.00
2022-11-08T17:44:21.670Z,2.00
2022-11-08T17:46:50.430Z,2.53
2022-11-08T17:49:17.928Z,2.00
2022-11-08T17:51:45.426Z,2.20
2022-11-08T17:54:12.833Z,2.27
2022-11-08T17:56:40.372Z,1.93
2022-11-08T17:59:07.794Z,1.93
2022-11-08T18:01:35.733Z,1.90
2022-11-08T18:04:04.968Z,1.83
2022-11-08T18:06:32.498Z,1.80
2022-11-08T18:08:59.948Z,1.97
2022-11-08T18:11:27.398Z,2.00
2022-11-08T18:13:54.801Z,2.10
2022-11-08T18:16:23.055Z,1.90
2022-11-08T18:18:50.715Z,1.73
2022-11-08T18:21:19.655Z,1.90
2022-11-08T18:23:48.218Z,2.00
2022-11-08T18:26:16.243Z,1.97
2022-11-08T18:28:44.197Z,2.50
2022-11-08T18:31:12.674Z,2.53
2022-11-08T18:33:40.489Z,2.00
2022-11-08T18:36:08.682Z,1.60
2022-11-08T18:38:39.130Z,1.80
2022-11-08T18:41:07.091Z,2.20
2022-11-08T18:43:34.528Z,1.90
2022-11-08T18:46:02.852Z,2.03
2022-11-08T18:48:32.245Z,1.80
2022-11-08T18:51:00.296Z,1.73
2022-11-08T18:53:27.672Z,1.90
2022-11-08T18:55:56.465Z,1.60
2022-11-08T18:58:23.878Z,1.60
2022-11-08T19:00:52.508Z,1.60
2022-11-08T19:03:20.470Z,1.80
2022-11-08T19:05:48.210Z,1.60
2022-11-08T19:08:15.919Z,1.87
2022-11-08T19:10:49.704Z,1.97
2022-11-08T19:13:18.710Z,1.90
2022-11-08T19:15:46.412Z,1.70
2022-11-08T19:18:13.822Z,2.00
2022-11-08T19:20:41.195Z,1.80
2022-11-08T19:23:08.599Z,1.67
2022-11-08T19:25:35.983Z,1.60
2022-11-08T19:28:03.489Z,1.60
2022-11-08T19:30:32.329Z,1.83
2022-11-08T19:33:00.706Z,1.70
2022-11-08T19:35:28.162Z,1.80
2022-11-08T19:37:55.564Z,1.70
2022-11-08T19:40:25.684Z,1.70
2022-11-08T19:42:56.750Z,1.80
2022-11-08T19:45:24.171Z,1.70
2022-11-08T19:47:53.170Z,2.40
2022-11-08T19:50:20.632Z,1.80
2022-11-08T19:52:48.027Z,1.90
2022-11-08T19:55:15.460Z,1.83
2022-11-08T19:57:42.901Z,1.70
2022-11-08T20:00:11.233Z,1.80
2022-11-08T20:02:38.755Z,1.73
2022-11-08T20:05:07.814Z,2.00
2022-11-08T20:07:35.210Z,2.00
2022-11-08T20:10:02.620Z,2.07
2022-11-08T20:12:31.771Z,2.00
2022-11-08T20:14:59.290Z,2.07
2022-11-08T20:17:26.689Z,1.87
2022-11-08T20:19:54.105Z,2.10
2022-11-08T20:22:22.824Z,1.80
2022-11-08T20:24:50.242Z,1.90
2022-11-08T20:27:17.622Z,2.10
2022-11-08T20:29:45.082Z,2.00
2022-11-08T20:32:12.549Z,1.93
2022-11-08T20:34:41.254Z,1.90
2022-11-08T20:37:08.830Z,2.13
2022-11-08T20:39:37.592Z,1.80
2022-11-08T20:42:05.037Z,1.80
2022-11-08T20:44:32.431Z,2.27
2022-11-08T20:47:05.463Z,2.00
2022-11-08T20:49:33.914Z,2.10
2022-11-08T20:52:01.311Z,1.90
2022-11-08T20:54:28.725Z,2.10
2022-11-08T20:56:57.450Z,1.80
2022-11-08T20:59:24.893Z,1.67
2022-11-08T21:01:52.372Z,1.80
2022-11-08T21:04:20.058Z,2.00
2022-11-08T21:06:47.519Z,1.80
2022-11-08T21:09:36.275Z,1.67
2022-11-08T21:12:03.908Z,1.70
2022-11-08T21:14:31.398Z,1.67
2022-11-08T21:17:20.899Z,1.77
2022-11-08T21:19:48.237Z,1.80
2022-11-08T21:22:18.658Z,1.60
2022-11-08T21:24:46.941Z,1.53
2022-11-08T21:27:15.951Z,1.47
2022-11-08T21:29:43.502Z,1.40
2022-11-08T21:32:10.907Z,1.50
2022-11-08T21:34:39.610Z,1.47
2022-11-08T21:37:10.089Z,1.57
2022-11-08T21:39:37.492Z,1.53
2022-11-08T21:42:04.892Z,1.77
2022-11-08T21:44:33.634Z,1.80
2022-11-08T21:47:01.061Z,1.57
2022-11-08T21:49:28.480Z,1.60
2022-11-08T21:51:55.865Z,1.67
2022-11-08T21:54:23.380Z,1.33
2022-11-08T21:56:50.801Z,1.70
2022-11-08T21:59:18.217Z,1.40
2022-11-08T22:01:46.980Z,1.30
2022-11-08T22:04:14.390Z,1.60
2022-11-08T22:06:47.321Z,1.67
2022-11-08T22:09:15.150Z,1.57
2022-11-08T22:11:42.636Z,1.20
2022-11-08T22:14:10.066Z,1.47
2022-11-08T22:16:37.483Z,1.30
2022-11-08T22:19:06.513Z,1.47
2022-11-08T22:21:41.047Z,1.57
2022-11-08T22:24:10.159Z,1.40
2022-11-08T22:26:37.611Z,1.60
2022-11-08T22:29:05.139Z,1.20
2022-11-08T22:31:32.646Z,1.40
2022-11-08T22:34:00.059Z,1.47
2022-11-08T22:36:28.858Z,1.40
2022-11-08T22:38:56.280Z,1.27
2022-11-08T22:41:24.134Z,1.20
2022-11-08T22:43:51.872Z,1.20
2022-11-08T22:46:19.355Z,1.30
2022-11-08T22:48:47.005Z,1.40
2022-11-08T22:51:14.722Z,1.37
2022-11-08T22:53:43.457Z,1.30
2022-11-08T22:56:11.961Z,1.27
2022-11-08T22:58:40.067Z,1.60
2022-11-08T23:01:07.699Z,1.40
2022-11-08T23:03:35.135Z,1.30
2022-11-08T23:06:02.563Z,1.30
2022-11-08T23:08:30.368Z,1.30
2022-11-08T23:11:18.661Z,1.40
2022-11-08T23:14:08.695Z,1.63
2022-11-08T23:16:38.160Z,1.40
2022-11-08T23:19:24.133Z,1.60
2022-11-08T23:22:09.334Z,1.23
2022-11-08T23:24:36.897Z,1.53
2022-11-08T23:27:23.754Z,1.50
2022-11-08T23:30:09.266Z,1.40
2022-11-08T23:32:37.021Z,1.50
2022-11-08T23:35:04.596Z,1.30
2022-11-08T23:37:32.055Z,1.67
2022-11-08T23:40:17.247Z,1.33
2022-11-08T23:43:03.279Z,1.43
2022-11-08T23:45:30.685Z,1.40
2022-11-08T23:47:58.138Z,1.53
2022-11-08T23:50:25.545Z,1.40
2022-11-08T23:52:52.921Z,1.67
2022-11-08T23:55:20.378Z,1.33
2022-11-08T23:57:49.795Z,1.50
